createdAt,value
2023-03-22T00:01:11.734Z,72.10
2023-03-22T00:04:15.651Z,72.56
2023-03-22T00:07:19.414Z,72.47
2023-03-22T00:10:25.660Z,72.18
2023-03-22T00:13:29.764Z,72.53
2023-03-22T00:16:34.555Z,71.92
2023-03-22T00:19:42.134Z,72.48
2023-03-22T00:22:46.197Z,72.44
2023-03-22T00:25:51.790Z,72.61
2023-03-22T00:28:55.664Z,72.24
2023-03-22T00:31:59.331Z,72.38
2023-03-22T00:35:03.661Z,72.44
2023-03-22T00:38:14.080Z,72.13
2023-03-22T00:41:23.555Z,72.91
2023-03-22T00:44:27.417Z,72.29
2023-03-22T00:47:31.834Z,72.61
2023-03-22T00:50:35.868Z,72.54
2023-03-22T00:53:43.003Z,73.08
2023-03-22T00:56:50.384Z,73.12
2023-03-22T00:59:55.987Z,72.44
2023-03-22T01:03:04.775Z,72.56
2023-03-22T01:06:11.185Z,73.17
2023-03-22T01:09:15.432Z,72.67
2023-03-22T01:12:21.958Z,73.02
2023-03-22T01:15:26.007Z,72.96
2023-03-22T01:18:30.374Z,73.50
2023-03-22T01:21:34.323Z,73.93
2023-03-22T01:24:38.181Z,73.86
2023-03-22T01:27:43.394Z,73.51
2023-03-22T01:30:47.417Z,74.07
2023-03-22T01:33:51.418Z,73.80
2023-03-22T01:36:55.637Z,74.74
2023-03-22T01:40:00.584Z,74.18
2023-03-22T01:43:16.078Z,74.41
2023-03-22T01:46:20.917Z,74.77
2023-03-22T01:49:32.116Z,75.17
2023-03-22T01:52:38.889Z,75.44
2023-03-22T01:55:48.987Z,75.16
2023-03-22T01:59:02.855Z,74.61
2023-03-22T02:02:22.377Z,74.03
2023-03-22T02:05:35.754Z,74.80
2023-03-22T02:08:41.060Z,74.18
2023-03-22T02:12:03.463Z,74.76
2023-03-22T02:15:20.286Z,73.78
2023-03-22T02:19:09.856Z,74.12
2023-03-22T02:22:42.088Z,75.16
2023-03-22T02:26:31.035Z,75.36
2023-03-22T02:29:46.138Z,74.38
2023-03-22T02:33:23.621Z,75.41
2023-03-22T02:37:01.900Z,76.02
2023-03-22T02:40:16.550Z,74.98
2023-03-22T02:43:34.591Z,75.04
2023-03-22T02:46:46.045Z,74.87
2023-03-22T02:50:01.110Z,75.80
2023-03-22T02:53:14.872Z,75.71
2023-03-22T02:56:28.887Z,75.65
2023-03-22T02:59:38.785Z,75.62
2023-03-22T03:02:50.170Z,75.45
2023-03-22T03:06:00.369Z,75.56
2023-03-22T03:09:06.160Z,75.29
2023-03-22T03:12:19.484Z,75.00
2023-03-22T03:15:25.979Z,74.95
2023-03-22T03:18:45.785Z,75.44
2023-03-22T03:22:04.284Z,76.00
2023-03-22T03:25:22.914Z,75.22
2023-03-22T03:28:39.844Z,75.12
2023-03-22T03:31:51.635Z,75.08
2023-03-22T03:35:03.599Z,74.93
2023-03-22T03:38:14.786Z,75.44
2023-03-22T03:41:24.006Z,75.21
2023-03-22T03:44:31.954Z,75.42
2023-03-22T03:47:38.217Z,75.44
2023-03-22T03:50:42.774Z,75.64
2023-03-22T03:53:48.498Z,75.46
2023-03-22T03:56:52.313Z,75.73
2023-03-22T03:59:57.681Z,74.91
2023-03-22T04:03:17.686Z,75.16
2023-03-22T04:06:36.096Z,75.51
2023-03-22T04:09:45.970Z,75.28
2023-03-22T04:12:57.800Z,75.93
2023-03-22T04:16:03.673Z,76.20
2023-03-22T04:19:11.878Z,75.48
2023-03-22T04:22:18.463Z,75.06
2023-03-22T04:25:23.095Z,75.19
2023-03-22T04:28:38.058Z,75.49
2023-03-22T04:31:44.519Z,74.36
2023-03-22T04:34:58.537Z,74.73
2023-03-22T04:38:03.032Z,74.75
2023-03-22T04:41:08.690Z,75.37
2023-03-22T04:44:18.067Z,74.97
2023-03-22T04:47:27.830Z,75.66
2023-03-22T04:50:31.954Z,74.82
2023-03-22T04:53:39.816Z,75.33
2023-03-22T04:56:45.326Z,75.28
2023-03-22T04:59:50.792Z,74.83
2023-03-22T05:02:56.568Z,75.07
2023-03-22T05:06:11.232Z,75.18
2023-03-22T05:09:27.119Z,75.03
2023-03-22T05:12:31.944Z,74.79
2023-03-22T05:15:44.472Z,74.83
2023-03-22T05:18:54.442Z,75.34
2023-03-22T05:22:02.103Z,74.69
2023-03-22T05:25:24.702Z,74.94
2023-03-22T05:28:29.041Z,75.00
2023-03-22T05:31:53.757Z,75.11
2023-03-22T05:35:03.676Z,74.82
2023-03-22T05:38:14.637Z,75.07
2023-03-22T05:41:24.344Z,74.48
2023-03-22T05:44:28.599Z,75.22
2023-03-22T05:47:43.329Z,74.79
2023-03-22T05:50:55.484Z,74.62
2023-03-22T05:53:59.587Z,74.92
2023-03-22T05:57:11.074Z,75.03
2023-03-22T06:00:18.249Z,74.88
2023-03-22T06:03:41.822Z,74.50
2023-03-22T06:06:55.065Z,74.12
2023-03-22T06:10:15.484Z,74.53
2023-03-22T06:13:20.197Z,74.23
2023-03-22T06:16:24.669Z,74.32
2023-03-22T06:19:29.407Z,74.20
2023-03-22T06:22:34.900Z,74.32
2023-03-22T06:25:39.172Z,73.68
2023-03-22T06:28:43.090Z,73.91
2023-03-22T06:31:49.163Z,74.22
2023-03-22T06:34:52.746Z,73.94
2023-03-22T06:38:00.147Z,74.25
2023-03-22T06:41:04.478Z,73.18
2023-03-22T06:44:08.529Z,73.29
2023-03-22T06:47:27.576Z,73.12
2023-03-22T06:51:04.987Z,72.90
2023-03-22T06:54:14.866Z,72.64
2023-03-22T06:57:18.995Z,72.92
2023-03-22T07:00:23.320Z,73.24
2023-03-22T07:03:27.382Z,73.28
2023-03-22T07:06:34.847Z,73.27
2023-03-22T07:09:41.949Z,73.30
2023-03-22T07:12:45.798Z,73.38
2023-03-22T07:15:57.651Z,74.22
2023-03-22T07:19:31.316Z,73.24
2023-03-22T07:22:37.964Z,73.13
2023-03-22T07:25:43.236Z,72.62
2023-03-22T07:29:01.828Z,72.80
2023-03-22T07:32:09.042Z,72.69
2023-03-22T07:35:30.414Z,72.56
2023-03-22T07:38:34.523Z,73.16
2023-03-22T07:41:41.354Z,72.39
2023-03-22T07:45:06.753Z,71.41
2023-03-22T07:48:22.645Z,72.13
2023-03-22T07:51:39.392Z,71.79
2023-03-22T07:54:43.643Z,71.23
2023-03-22T07:57:48.772Z,71.30
2023-03-22T08:00:53.008Z,70.73
2023-03-22T08:04:15.690Z,70.19
2023-03-22T08:07:27.295Z,69.63
2023-03-22T08:10:32.735Z,70.03
2023-03-22T08:13:38.295Z,70.37
2023-03-22T08:16:45.051Z,69.99
2023-03-22T08:19:50.154Z,69.55
2023-03-22T08:22:59.135Z,69.82
2023-03-22T08:26:39.426Z,68.65
2023-03-22T08:29:53.173Z,68.60
2023-03-22T08:32:57.146Z,68.58
2023-03-22T08:36:12.490Z,69.20
2023-03-22T08:39:24.732Z,69.30
2023-03-22T08:42:39.431Z,69.17
2023-03-22T08:45:45.020Z,67.77
2023-03-22T08:48:53.042Z,67.58
2023-03-22T08:52:04.477Z,67.59
2023-03-22T08:55:26.837Z,66.85
2023-03-22T08:58:48.840Z,67.36
2023-03-22T09:02:11.021Z,66.75
2023-03-22T09:05:16.466Z,66.96
2023-03-22T09:08:21.367Z,66.92
2023-03-22T09:11:31.426Z,65.56
2023-03-22T09:14:35.194Z,65.56
2023-03-22T09:17:41.829Z,65.49
2023-03-22T09:20:47.459Z,64.50
2023-03-22T09:23:55.578Z,64.50
2023-03-22T09:27:05.897Z,64.57
2023-03-22T09:30:11.449Z,64.25
2023-03-22T09:33:16.593Z,63.26
2023-03-22T09:36:24.876Z,62.93
2023-03-22T09:39:28.790Z,62.27
2023-03-22T09:42:42.404Z,62.06
2023-03-22T09:45:52.798Z,62.10
2023-03-22T09:49:02.856Z,61.53
2023-03-22T09:52:15.175Z,61.85
2023-03-22T09:55:24.090Z,61.06
2023-03-22T09:58:38.020Z,60.48
2023-03-22T10:01:52.808Z,60.64
2023-03-22T10:05:13.216Z,60.29
2023-03-22T10:08:37.248Z,59.82
2023-03-22T10:11:47.905Z,59.39
2023-03-22T10:15:03.167Z,59.14
2023-03-22T10:18:14.412Z,58.04
2023-03-22T10:21:21.976Z,58.73
2023-03-22T10:24:31.341Z,59.38
2023-03-22T10:27:36.231Z,59.58
2023-03-22T10:30:43.640Z,59.29
2023-03-22T10:33:57.255Z,59.40
2023-03-22T10:37:07.460Z,59.77
2023-03-22T10:40:21.792Z,58.11
2023-03-22T10:43:33.328Z,58.37
2023-03-22T10:46:42.274Z,57.35
2023-03-22T10:49:53.130Z,57.55
2023-03-22T10:53:06.452Z,58.03
2023-03-22T10:56:16.012Z,58.06
2023-03-22T10:59:49.964Z,58.16
2023-03-22T11:02:59.313Z,58.64
2023-03-22T11:06:08.780Z,57.89
2023-03-22T11:09:18.091Z,57.01
2023-03-22T11:12:22.434Z,56.56
2023-03-22T11:15:31.153Z,56.08
2023-03-22T11:18:36.671Z,56.23
2023-03-22T11:21:44.210Z,55.94
2023-03-22T11:24:49.884Z,54.75
2023-03-22T11:27:58.085Z,54.85
2023-03-22T11:31:07.313Z,53.77
2023-03-22T11:34:19.969Z,52.38
2023-03-22T11:37:23.937Z,53.01
2023-03-22T11:40:33.031Z,52.38
2023-03-22T11:43:40.975Z,51.24
2023-03-22T11:46:55.641Z,50.95
2023-03-22T11:50:05.223Z,52.01
2023-03-22T11:53:16.568Z,51.71
2023-03-22T11:56:31.828Z,51.54
2023-03-22T11:59:40.643Z,50.05
2023-03-22T12:02:52.526Z,50.92
2023-03-22T12:05:57.297Z,50.06
2023-03-22T12:09:11.816Z,49.14
2023-03-22T12:12:23.071Z,48.90
2023-03-22T12:15:32.912Z,47.75
2023-03-22T12:18:47.405Z,48.52
2023-03-22T12:21:53.883Z,46.91
2023-03-22T12:24:57.733Z,47.22
2023-03-22T12:28:10.804Z,45.62
2023-03-22T12:31:22.642Z,42.51
2023-03-22T12:34:38.383Z,34.99
2023-03-22T12:37:45.872Z,32.93
2023-03-22T12:40:54.021Z,34.46
2023-03-22T12:44:05.348Z,34.00
2023-03-22T12:47:23.019Z,30.94
2023-03-22T12:50:36.019Z,29.27
2023-03-22T12:53:45.735Z,28.94
2023-03-22T12:56:51.764Z,27.72
2023-03-22T13:00:10.315Z,25.86
2023-03-22T13:03:28.819Z,27.00
2023-03-22T13:06:57.701Z,28.50
2023-03-22T13:10:22.871Z,30.43
2023-03-22T13:13:48.442Z,31.22
2023-03-22T13:17:00.327Z,31.67
2023-03-22T13:20:28.079Z,31.22
2023-03-22T13:23:32.091Z,30.54
2023-03-22T13:26:45.729Z,28.91
2023-03-22T13:29:53.955Z,28.05
2023-03-22T13:33:04.639Z,27.42
2023-03-22T13:36:24.965Z,26.61
2023-03-22T13:39:36.326Z,22.59
2023-03-22T13:42:42.266Z,24.09
2023-03-22T13:46:13.582Z,21.29
2023-03-22T13:49:51.274Z,23.14
2023-03-22T13:53:04.302Z,27.70
2023-03-22T13:56:12.338Z,31.50
2023-03-22T13:59:27.222Z,32.78
2023-03-22T14:02:40.875Z,34.46
2023-03-22T14:05:49.721Z,32.16
2023-03-22T14:09:04.496Z,28.20
2023-03-22T14:12:20.801Z,25.28
2023-03-22T14:15:29.822Z,27.64
2023-03-22T14:18:41.217Z,27.78
